sensor_id;sensor_type;location;lat;lon;timestamp;temperature;humidity
12438;DHT22;6283;51.330;12.374;2023-03-01T00:01:15;2.10;1.00
12438;DHT22;6283;51.330;12.374;2023-03-01T00:03:42;2.10;1.00
12438;DHT22;6283;51.330;12.374;2023-03-01T00:06:07;2.00;1.00
12438;DHT22;6283;51.330;12.374;2023-03-01T00:08:34;1.70;1.00
12438;DHT22;6283;51.330;12.374;2023-03-01T00:11:04;1.90;1.00
12438;DHT22;6283;51.330;12.374;2023-03-01T00:13:30;1.60;1.00
12438;DHT22;6283;51.330;12.374;2023-03-01T00:15:56;1.90;1.00
12438;DHT22;6283;51.330;12.374;2023-03-01T00:18:22;1.90;1.00
12438;DHT22;6283;51.330;12.374;2023-03-01T00:20:54;1.70;1.00
12438;DHT22;6283;51.330;12.374;2023-03-01T00:23:21;1.90;1.00
12438;DHT22;6283;51.330;12.374;2023-03-01T00:25:46;1.60;1.00
12438;DHT22;6283;51.330;12.374;2023-03-01T00:28:12;1.90;1.00
12438;DHT22;6283;51.330;12.374;2023-03-01T00:30:37;1.90;1.00
12438;DHT22;6283;51.330;12.374;2023-03-01T00:33:03;1.90;1.00
12438;DHT22;6283;51.330;12.374;2023-03-01T00:35:29;1.50;1.00
12438;DHT22;6283;51.330;12.374;2023-03-01T00:37:57;1.90;1.00
12438;DHT22;6283;51.330;12.374;2023-03-01T00:40:31;1.60;1.00
12438;DHT22;6283;51.330;12.374;2023-03-01T00:42:57;1.90;1.00
12438;DHT22;6283;51.330;12.374;2023-03-01T00:45:23;1.80;1.00
12438;DHT22;6283;51.330;12.374;2023-03-01T00:47:50;1.80;1.00
12438;DHT22;6283;51.330;12.374;2023-03-01T00:50:16;1.90;1.00
12438;DHT22;6283;51.330;12.374;2023-03-01T00:52:42;1.80;1.00
12438;DHT22;6283;51.330;12.374;2023-03-01T00:55:09;1.80;1.00
12438;DHT22;6283;51.330;12.374;2023-03-01T00:57:34;1.50;1.00
12438;DHT22;6283;51.330;12.374;2023-03-01T01:00:00;1.80;1.00
12438;DHT22;6283;51.330;12.374;2023-03-01T01:02:26;1.50;1.00
12438;DHT22;6283;51.330;12.374;2023-03-01T01:04:51;1.70;1.00
12438;DHT22;6283;51.330;12.374;2023-03-01T01:07:17;1.50;1.00
12438;DHT22;6283;51.330;12.374;2023-03-01T01:09:46;1.40;1.00
12438;DHT22;6283;51.330;12.374;2023-03-01T01:12:12;1.40;1.00
12438;DHT22;6283;51.330;12.374;2023-03-01T01:14:37;1.70;1.00
12438;DHT22;6283;51.330;12.374;2023-03-01T01:17:03;1.60;1.00
12438;DHT22;6283;51.330;12.374;2023-03-01T01:19:29;1.40;1.00
12438;DHT22;6283;51.330;12.374;2023-03-01T01:21:55;1.20;1.00
12438;DHT22;6283;51.330;12.374;2023-03-01T01:24:20;1.30;1.00
12438;DHT22;6283;51.330;12.374;2023-03-01T01:26:46;1.40;1.00
12438;DHT22;6283;51.330;12.374;2023-03-01T01:29:12;1.20;1.00
12438;DHT22;6283;51.330;12.374;2023-03-01T01:31:40;1.10;1.00
12438;DHT22;6283;51.330;12.374;2023-03-01T01:34:07;1.20;1.00
12438;DHT22;6283;51.330;12.374;2023-03-01T01:36:34;1.50;1.00
12438;DHT22;6283;51.330;12.374;2023-03-01T01:38:59;1.40;1.00
12438;DHT22;6283;51.330;12.374;2023-03-01T01:41:27;1.20;1.00
12438;DHT22;6283;51.330;12.374;2023-03-01T01:44:16;1.30;1.00
12438;DHT22;6283;51.330;12.374;2023-03-01T01:46:46;1.20;1.00
12438;DHT22;6283;51.330;12.374;2023-03-01T01:52:00;1.20;1.00
12438;DHT22;6283;51.330;12.374;2023-03-01T01:54:51;1.30;1.00
12438;DHT22;6283;51.330;12.374;2023-03-01T01:57:32;1.00;1.00
12438;DHT22;6283;51.330;12.374;2023-03-01T02:00:02;1.20;1.00
12438;DHT22;6283;51.330;12.374;2023-03-01T02:02:28;1.10;1.00
12438;DHT22;6283;51.330;12.374;2023-03-01T02:05:01;1.00;1.00
12438;DHT22;6283;51.330;12.374;2023-03-01T02:07:30;1.00;1.00
12438;DHT22;6283;51.330;12.374;2023-03-01T02:09:55;0.80;1.00
12438;DHT22;6283;51.330;12.374;2023-03-01T02:12:24;1.00;1.00
12438;DHT22;6283;51.330;12.374;2023-03-01T02:14:51;1.10;1.00
12438;DHT22;6283;51.330;12.374;2023-03-01T02:17:17;0.80;1.00
12438;DHT22;6283;51.330;12.374;2023-03-01T02:22:33;0.90;1.00
12438;DHT22;6283;51.330;12.374;2023-03-01T02:30:38;0.80;3.20
12438;DHT22;6283;51.330;12.374;2023-03-01T02:33:25;0.70;5.10
12438;DHT22;6283;51.330;12.374;2023-03-01T02:35:53;0.80;3.90
12438;DHT22;6283;51.330;12.374;2023-03-01T02:38:20;0.80;4.70
12438;DHT22;6283;51.330;12.374;2023-03-01T02:40:47;0.70;5.20
12438;DHT22;6283;51.330;12.374;2023-03-01T02:43:14;0.70;5.50
12438;DHT22;6283;51.330;12.374;2023-03-01T02:45:51;0.80;7.00
12438;DHT22;6283;51.330;12.374;2023-03-01T02:48:19;0.70;7.90
12438;DHT22;6283;51.330;12.374;2023-03-01T02:50:57;0.70;8.80
12438;DHT22;6283;51.330;12.374;2023-03-01T02:56:02;0.80;9.40
12438;DHT22;6283;51.330;12.374;2023-03-01T02:58:28;0.90;9.40
12438;DHT22;6283;51.330;12.374;2023-03-01T03:00:53;0.60;11.40
12438;DHT22;6283;51.330;12.374;2023-03-01T03:03:20;0.80;10.40
12438;DHT22;6283;51.330;12.374;2023-03-01T03:05:46;0.70;12.40
12438;DHT22;6283;51.330;12.374;2023-03-01T03:08:13;0.70;13.80
12438;DHT22;6283;51.330;12.374;2023-03-01T03:10:40;0.60;13.30
12438;DHT22;6283;51.330;12.374;2023-03-01T03:13:08;0.80;14.30
12438;DHT22;6283;51.330;12.374;2023-03-01T03:15:35;0.70;14.70
12438;DHT22;6283;51.330;12.374;2023-03-01T03:18:03;0.60;15.20
12438;DHT22;6283;51.330;12.374;2023-03-01T03:20:29;0.80;16.40
12438;DHT22;6283;51.330;12.374;2023-03-01T03:22:56;0.50;15.70
12438;DHT22;6283;51.330;12.374;2023-03-01T03:25:24;0.70;17.50
12438;DHT22;6283;51.330;12.374;2023-03-01T03:27:50;0.60;17.80
12438;DHT22;6283;51.330;12.374;2023-03-01T03:30:23;0.60;18.10
12438;DHT22;6283;51.330;12.374;2023-03-01T03:32:49;0.50;20.70
12438;DHT22;6283;51.330;12.374;2023-03-01T03:37:44;0.40;21.20
12438;DHT22;6283;51.330;12.374;2023-03-01T03:40:36;0.40;22.40
12438;DHT22;6283;51.330;12.374;2023-03-01T03:43:09;0.60;23.60
12438;DHT22;6283;51.330;12.374;2023-03-01T03:45:36;0.60;24.50
12438;DHT22;6283;51.330;12.374;2023-03-01T03:48:04;0.50;25.60
12438;DHT22;6283;51.330;12.374;2023-03-01T03:50:30;0.50;24.10
12438;DHT22;6283;51.330;12.374;2023-03-01T03:52:56;0.40;24.80
12438;DHT22;6283;51.330;12.374;2023-03-01T03:55:22;0.60;24.60
12438;DHT22;6283;51.330;12.374;2023-03-01T03:57:48;0.40;27.20
12438;DHT22;6283;51.330;12.374;2023-03-01T04:00:21;0.60;27.80
12438;DHT22;6283;51.330;12.374;2023-03-01T04:02:50;0.50;28.90
12438;DHT22;6283;51.330;12.374;2023-03-01T04:05:17;0.50;28.00
12438;DHT22;6283;51.330;12.374;2023-03-01T04:07:44;0.50;31.30
12438;DHT22;6283;51.330;12.374;2023-03-01T04:10:12;0.30;33.10
12438;DHT22;6283;51.330;12.374;2023-03-01T04:12:38;0.30;34.90
12438;DHT22;6283;51.330;12.374;2023-03-01T04:15:05;0.60;34.90
12438;DHT22;6283;51.330;12.374;2023-03-01T04:17:47;0.40;33.80
12438;DHT22;6283;51.330;12.374;2023-03-01T04:20:15;0.40;36.70
12438;DHT22;6283;51.330;12.374;2023-03-01T04:23:01;0.10;37.40
12438;DHT22;6283;51.330;12.374;2023-03-01T04:25:38;0.20;39.80
12438;DHT22;6283;51.330;12.374;2023-03-01T04:28:04;0.10;41.90
12438;DHT22;6283;51.330;12.374;2023-03-01T04:30:29;0.20;47.70
12438;DHT22;6283;51.330;12.374;2023-03-01T04:33:10;0.20;46.50
12438;DHT22;6283;51.330;12.374;2023-03-01T04:35:36;0.00;49.30
12438;DHT22;6283;51.330;12.374;2023-03-01T04:38:04;0.00;53.70
12438;DHT22;6283;51.330;12.374;2023-03-01T04:40:29;0.20;56.40
12438;DHT22;6283;51.330;12.374;2023-03-01T04:42:55;0.20;57.80
12438;DHT22;6283;51.330;12.374;2023-03-01T04:45:21;0.10;57.10
12438;DHT22;6283;51.330;12.374;2023-03-01T04:47:47;0.00;58.20
12438;DHT22;6283;51.330;12.374;2023-03-01T04:50:15;-0.20;61.40
12438;DHT22;6283;51.330;12.374;2023-03-01T04:52:41;0.10;65.10
12438;DHT22;6283;51.330;12.374;2023-03-01T04:55:08;0.00;65.70
12438;DHT22;6283;51.330;12.374;2023-03-01T04:57:34;-0.10;67.90
12438;DHT22;6283;51.330;12.374;2023-03-01T04:59:59;0.00;69.30
12438;DHT22;6283;51.330;12.374;2023-03-01T05:02:25;0.00;72.70
12438;DHT22;6283;51.330;12.374;2023-03-01T05:04:51;0.00;75.60
12438;DHT22;6283;51.330;12.374;2023-03-01T05:07:17;0.00;77.10
12438;DHT22;6283;51.330;12.374;2023-03-01T05:09:47;-0.20;99.00
12438;DHT22;6283;51.330;12.374;2023-03-01T05:12:14;0.00;79.20
12438;DHT22;6283;51.330;12.374;2023-03-01T05:14:40;0.00;78.50
12438;DHT22;6283;51.330;12.374;2023-03-01T05:17:06;-0.10;80.50
12438;DHT22;6283;51.330;12.374;2023-03-01T05:19:32;-0.10;84.30
12438;DHT22;6283;51.330;12.374;2023-03-01T05:21:58;0.00;84.90
12438;DHT22;6283;51.330;12.374;2023-03-01T05:24:32;-0.30;88.10
12438;DHT22;6283;51.330;12.374;2023-03-01T05:26:58;-0.10;90.50
12438;DHT22;6283;51.330;12.374;2023-03-01T05:29:25;-0.40;99.90
12438;DHT22;6283;51.330;12.374;2023-03-01T05:31:56;0.00;99.90
12438;DHT22;6283;51.330;12.374;2023-03-01T05:34:41;0.00;99.90
12438;DHT22;6283;51.330;12.374;2023-03-01T05:37:07;-0.30;99.90
12438;DHT22;6283;51.330;12.374;2023-03-01T05:39:33;0.00;99.90
12438;DHT22;6283;51.330;12.374;2023-03-01T05:42:00;-0.10;99.90
12438;DHT22;6283;51.330;12.374;2023-03-01T05:44:28;-0.10;99.90
12438;DHT22;6283;51.330;12.374;2023-03-01T05:46:54;-0.40;99.90
12438;DHT22;6283;51.330;12.374;2023-03-01T05:49:21;-0.20;99.90
12438;DHT22;6283;51.330;12.374;2023-03-01T05:51:51;-0.50;99.90
12438;DHT22;6283;51.330;12.374;2023-03-01T05:54:17;-0.40;99.90
12438;DHT22;6283;51.330;12.374;2023-03-01T05:56:44;-0.50;99.90
12438;DHT22;6283;51.330;12.374;2023-03-01T05:59:10;-0.50;99.90
12438;DHT22;6283;51.330;12.374;2023-03-01T06:01:36;-0.50;99.90
12438;DHT22;6283;51.330;12.374;2023-03-01T06:04:03;-0.60;99.90
12438;DHT22;6283;51.330;12.374;2023-03-01T06:06:29;-0.30;99.90
12438;DHT22;6283;51.330;12.374;2023-03-01T06:08:58;-0.40;99.90
12438;DHT22;6283;51.330;12.374;2023-03-01T06:11:24;-0.50;99.90
12438;DHT22;6283;51.330;12.374;2023-03-01T06:13:50;-0.60;99.90
12438;DHT22;6283;51.330;12.374;2023-03-01T06:16:16;-0.40;99.90
12438;DHT22;6283;51.330;12.374;2023-03-01T06:18:41;-0.60;99.90
12438;DHT22;6283;51.330;12.374;2023-03-01T06:21:08;-0.40;99.90
12438;DHT22;6283;51.330;12.374;2023-03-01T06:23:34;-0.40;99.90
12438;DHT22;6283;51.330;12.374;2023-03-01T06:25:59;-0.20;99.90
12438;DHT22;6283;51.330;12.374;2023-03-01T06:28:25;-0.50;99.90
12438;DHT22;6283;51.330;12.374;2023-03-01T06:30:51;-0.50;99.90
12438;DHT22;6283;51.330;12.374;2023-03-01T06:33:18;-0.50;99.90
12438;DHT22;6283;51.330;12.374;2023-03-01T06:35:46;-0.50;99.90
12438;DHT22;6283;51.330;12.374;2023-03-01T06:38:11;-0.50;99.90
12438;DHT22;6283;51.330;12.374;2023-03-01T06:40:40;-0.40;99.90
12438;DHT22;6283;51.330;12.374;2023-03-01T06:43:06;-0.30;99.90
12438;DHT22;6283;51.330;12.374;2023-03-01T06:45:33;-0.30;99.90
12438;DHT22;6283;51.330;12.374;2023-03-01T06:48:06;-0.20;99.90
12438;DHT22;6283;51.330;12.374;2023-03-01T06:50:33;-0.30;99.90
12438;DHT22;6283;51.330;12.374;2023-03-01T06:52:59;0.00;99.90
12438;DHT22;6283;51.330;12.374;2023-03-01T06:55:24;-0.20;99.90
12438;DHT22;6283;51.330;12.374;2023-03-01T06:57:57;-0.10;99.90
12438;DHT22;6283;51.330;12.374;2023-03-01T07:00:24;-0.10;99.90
12438;DHT22;6283;51.330;12.374;2023-03-01T07:02:50;0.00;99.90
12438;DHT22;6283;51.330;12.374;2023-03-01T07:05:16;0.10;99.90
12438;DHT22;6283;51.330;12.374;2023-03-01T07:07:41;0.10;99.90
12438;DHT22;6283;51.330;12.374;2023-03-01T07:10:08;0.30;99.90
12438;DHT22;6283;51.330;12.374;2023-03-01T07:12:33;0.00;99.90
12438;DHT22;6283;51.330;12.374;2023-03-01T07:14:59;0.40;99.90
12438;DHT22;6283;51.330;12.374;2023-03-01T07:17:25;0.30;99.90
12438;DHT22;6283;51.330;12.374;2023-03-01T07:19:50;0.10;99.90
12438;DHT22;6283;51.330;12.374;2023-03-01T07:22:16;0.10;99.90
12438;DHT22;6283;51.330;12.374;2023-03-01T07:24:42;0.30;99.90
12438;DHT22;6283;51.330;12.374;2023-03-01T07:27:08;0.30;99.90
12438;DHT22;6283;51.330;12.374;2023-03-01T07:29:33;0.50;99.90
12438;DHT22;6283;51.330;12.374;2023-03-01T07:32:02;0.50;99.90
12438;DHT22;6283;51.330;12.374;2023-03-01T07:34:27;0.50;99.90
12438;DHT22;6283;51.330;12.374;2023-03-01T07:36:53;0.50;99.90
12438;DHT22;6283;51.330;12.374;2023-03-01T07:39:19;0.50;99.90
12438;DHT22;6283;51.330;12.374;2023-03-01T07:41:44;0.70;99.90
12438;DHT22;6283;51.330;12.374;2023-03-01T07:44:10;0.70;99.90
12438;DHT22;6283;51.330;12.374;2023-03-01T07:46:36;0.90;99.90
12438;DHT22;6283;51.330;12.374;2023-03-01T07:49:02;0.70;99.90
12438;DHT22;6283;51.330;12.374;2023-03-01T07:51:27;0.90;99.90
12438;DHT22;6283;51.330;12.374;2023-03-01T07:53:53;0.80;99.90
12438;DHT22;6283;51.330;12.374;2023-03-01T07:56:18;0.90;99.90
12438;DHT22;6283;51.330;12.374;2023-03-01T07:58:45;1.10;99.90
12438;DHT22;6283;51.330;12.374;2023-03-01T08:01:13;1.40;99.90
12438;DHT22;6283;51.330;12.374;2023-03-01T08:03:40;1.20;99.90
12438;DHT22;6283;51.330;12.374;2023-03-01T08:06:07;1.20;99.20
12438;DHT22;6283;51.330;12.374;2023-03-01T08:08:34;1.20;95.90
12438;DHT22;6283;51.330;12.374;2023-03-01T08:11:01;1.40;95.90
12438;DHT22;6283;51.330;12.374;2023-03-01T08:13:28;1.40;96.60
12438;DHT22;6283;51.330;12.374;2023-03-01T08:15:54;1.60;96.50
12438;DHT22;6283;51.330;12.374;2023-03-01T08:18:20;1.70;96.00
12438;DHT22;6283;51.330;12.374;2023-03-01T08:20:47;1.60;93.90
12438;DHT22;6283;51.330;12.374;2023-03-01T08:23:13;1.70;93.20
12438;DHT22;6283;51.330;12.374;2023-03-01T08:25:39;2.00;90.00
12438;DHT22;6283;51.330;12.374;2023-03-01T08:28:05;2.10;85.60
12438;DHT22;6283;51.330;12.374;2023-03-01T08:30:31;2.20;1.00
12438;DHT22;6283;51.330;12.374;2023-03-01T08:32:57;2.10;1.00
12438;DHT22;6283;51.330;12.374;2023-03-01T08:35:22;2.10;1.00
12438;DHT22;6283;51.330;12.374;2023-03-01T08:37:48;2.20;1.00
12438;DHT22;6283;51.330;12.374;2023-03-01T08:40:14;2.30;1.00
12438;DHT22;6283;51.330;12.374;2023-03-01T08:42:41;2.50;1.00
12438;DHT22;6283;51.330;12.374;2023-03-01T08:45:09;2.60;1.00
12438;DHT22;6283;51.330;12.374;2023-03-01T08:47:35;2.60;1.00
12438;DHT22;6283;51.330;12.374;2023-03-01T08:50:00;2.50;1.00
12438;DHT22;6283;51.330;12.374;2023-03-01T08:52:26;2.80;1.00
12438;DHT22;6283;51.330;12.374;2023-03-01T08:54:53;2.90;1.00
12438;DHT22;6283;51.330;12.374;2023-03-01T08:57:18;3.00;1.00
12438;DHT22;6283;51.330;12.374;2023-03-01T08:59:44;3.00;1.00
12438;DHT22;6283;51.330;12.374;2023-03-01T09:02:12;3.10;1.00
12438;DHT22;6283;51.330;12.374;2023-03-01T09:04:39;3.40;1.00
12438;DHT22;6283;51.330;12.374;2023-03-01T09:07:04;3.30;1.00
12438;DHT22;6283;51.330;12.374;2023-03-01T09:09:30;3.60;1.00
12438;DHT22;6283;51.330;12.374;2023-03-01T09:11:56;3.50;1.00
12438;DHT22;6283;51.330;12.374;2023-03-01T09:14:22;3.60;1.00
12438;DHT22;6283;51.330;12.374;2023-03-01T09:16:47;3.80;1.00
12438;DHT22;6283;51.330;12.374;2023-03-01T09:19:13;3.70;1.00
12438;DHT22;6283;51.330;12.374;2023-03-01T09:21:39;3.90;1.00
12438;DHT22;6283;51.330;12.374;2023-03-01T09:24:07;3.90;1.00
12438;DHT22;6283;51.330;12.374;2023-03-01T09:26:37;3.90;1.00
12438;DHT22;6283;51.330;12.374;2023-03-01T09:29:02;4.00;1.00
12438;DHT22;6283;51.330;12.374;2023-03-01T09:31:28;3.90;1.00
12438;DHT22;6283;51.330;12.374;2023-03-01T09:33:54;3.90;1.00
12438;DHT22;6283;51.330;12.374;2023-03-01T09:36:22;4.10;1.00
12438;DHT22;6283;51.330;12.374;2023-03-01T09:38:49;4.00;1.00
12438;DHT22;6283;51.330;12.374;2023-03-01T09:43:50;4.10;1.00
12438;DHT22;6283;51.330;12.374;2023-03-01T09:46:20;4.10;1.00
12438;DHT22;6283;51.330;12.374;2023-03-01T09:49:09;4.20;1.00
12438;DHT22;6283;51.330;12.374;2023-03-01T09:51:36;4.10;1.00
12438;DHT22;6283;51.330;12.374;2023-03-01T09:54:03;4.10;1.00
12438;DHT22;6283;51.330;12.374;2023-03-01T09:56:51;4.30;1.00
12438;DHT22;6283;51.330;12.374;2023-03-01T10:02:30;4.50;1.00
12438;DHT22;6283;51.330;12.374;2023-03-01T10:05:29;4.40;1.00
12438;DHT22;6283;51.330;12.374;2023-03-01T10:10:44;4.40;1.00
12438;DHT22;6283;51.330;12.374;2023-03-01T10:16:17;4.70;1.00
12438;DHT22;6283;51.330;12.374;2023-03-01T10:18:49;4.80;1.00
12438;DHT22;6283;51.330;12.374;2023-03-01T10:21:19;4.90;1.00
12438;DHT22;6283;51.330;12.374;2023-03-01T10:23:46;4.70;1.00
12438;DHT22;6283;51.330;12.374;2023-03-01T10:26:24;4.80;1.00
12438;DHT22;6283;51.330;12.374;2023-03-01T10:29:06;4.70;1.00
12438;DHT22;6283;51.330;12.374;2023-03-01T10:34:16;4.70;1.00
12438;DHT22;6283;51.330;12.374;2023-03-01T10:36:43;5.00;1.00
12438;DHT22;6283;51.330;12.374;2023-03-01T10:39:21;5.20;1.00
12438;DHT22;6283;51.330;12.374;2023-03-01T10:42:01;5.20;1.00
12438;DHT22;6283;51.330;12.374;2023-03-01T10:44:48;5.30;1.00
12438;DHT22;6283;51.330;12.374;2023-03-01T10:47:26;5.30;1.00
12438;DHT22;6283;51.330;12.374;2023-03-01T10:49:59;5.20;1.00
12438;DHT22;6283;51.330;12.374;2023-03-01T10:52:31;5.20;1.00
12438;DHT22;6283;51.330;12.374;2023-03-01T10:55:24;5.40;1.00
12438;DHT22;6283;51.330;12.374;2023-03-01T10:57:50;5.40;1.00
12438;DHT22;6283;51.330;12.374;2023-03-01T11:02:48;5.60;1.00
12438;DHT22;6283;51.330;12.374;2023-03-01T11:07:57;5.50;1.00
12438;DHT22;6283;51.330;12.374;2023-03-01T11:10:29;5.60;1.00
12438;DHT22;6283;51.330;12.374;2023-03-01T11:13:14;5.70;1.00
12438;DHT22;6283;51.330;12.374;2023-03-01T11:15:40;5.70;1.00
12438;DHT22;6283;51.330;12.374;2023-03-01T11:18:19;5.80;1.00
12438;DHT22;6283;51.330;12.374;2023-03-01T11:20:45;5.70;1.00
12438;DHT22;6283;51.330;12.374;2023-03-01T11:23:14;5.70;1.00
12438;DHT22;6283;51.330;12.374;2023-03-01T11:25:43;5.80;1.00
12438;DHT22;6283;51.330;12.374;2023-03-01T11:28:14;5.80;1.00
12438;DHT22;6283;51.330;12.374;2023-03-01T11:31:05;5.80;1.00
12438;DHT22;6283;51.330;12.374;2023-03-01T11:33:46;6.20;1.00
12438;DHT22;6283;51.330;12.374;2023-03-01T11:38:55;6.30;1.00
12438;DHT22;6283;51.330;12.374;2023-03-01T11:41:31;6.60;99.90
12438;DHT22;6283;51.330;12.374;2023-03-01T11:44:16;6.60;1.00
12438;DHT22;6283;51.330;12.374;2023-03-01T11:49:54;6.80;1.00
12438;DHT22;6283;51.330;12.374;2023-03-01T11:52:48;7.20;1.00
12438;DHT22;6283;51.330;12.374;2023-03-01T11:55:55;7.30;1.00
12438;DHT22;6283;51.330;12.374;2023-03-01T12:04:23;7.80;1.00
12438;DHT22;6283;51.330;12.374;2023-03-01T12:07:14;7.90;1.00
12438;DHT22;6283;51.330;12.374;2023-03-01T12:09:59;8.30;1.00
12438;DHT22;6283;51.330;12.374;2023-03-01T12:15:32;8.40;1.00
12438;DHT22;6283;51.330;12.374;2023-03-01T12:25:07;9.10;1.00
12438;DHT22;6283;51.330;12.374;2023-03-01T12:27:22;9.50;1.00
12438;DHT22;6283;51.330;12.374;2023-03-01T12:30:19;9.50;1.00
12438;DHT22;6283;51.330;12.374;2023-03-01T12:32:53;9.70;1.00
12438;DHT22;6283;51.330;12.374;2023-03-01T12:49:25;10.60;1.00
12438;DHT22;6283;51.330;12.374;2023-03-01T12:52:00;10.60;1.00
12438;DHT22;6283;51.330;12.374;2023-03-01T12:54:32;10.70;1.00
12438;DHT22;6283;51.330;12.374;2023-03-01T12:57:09;10.50;1.00
12438;DHT22;6283;51.330;12.374;2023-03-01T12:59:47;10.60;1.00
12438;DHT22;6283;51.330;12.374;2023-03-01T13:02:24;10.70;1.00
12438;DHT22;6283;51.330;12.374;2023-03-01T13:07:41;11.20;1.00
12438;DHT22;6283;51.330;12.374;2023-03-01T13:10:28;11.30;1.00
12438;DHT22;6283;51.330;12.374;2023-03-01T13:17:50;11.80;1.00
12438;DHT22;6283;51.330;12.374;2023-03-01T13:20:34;11.90;1.00
12438;DHT22;6283;51.330;12.374;2023-03-01T13:46:57;12.10;1.00
12438;DHT22;6283;51.330;12.374;2023-03-01T13:49:28;12.50;1.00
12438;DHT22;6283;51.330;12.374;2023-03-01T13:51:54;12.60;1.00
12438;DHT22;6283;51.330;12.374;2023-03-01T13:54:29;12.70;1.00
12438;DHT22;6283;51.330;12.374;2023-03-01T13:56:57;12.70;1.00
12438;DHT22;6283;51.330;12.374;2023-03-01T13:59:23;12.90;1.00
12438;DHT22;6283;51.330;12.374;2023-03-01T14:01:56;13.10;1.00
12438;DHT22;6283;51.330;12.374;2023-03-01T14:04:28;13.20;1.00
12438;DHT22;6283;51.330;12.374;2023-03-01T14:07:19;13.30;1.00
12438;DHT22;6283;51.330;12.374;2023-03-01T14:09:52;13.40;1.00
12438;DHT22;6283;51.330;12.374;2023-03-01T14:12:39;13.30;1.00
12438;DHT22;6283;51.330;12.374;2023-03-01T14:15:34;13.40;1.00
12438;DHT22;6283;51.330;12.374;2023-03-01T14:20:46;13.50;1.00
12438;DHT22;6283;51.330;12.374;2023-03-01T14:23:22;13.60;1.00
12438;DHT22;6283;51.330;12.374;2023-03-01T14:25:54;13.80;1.00
12438;DHT22;6283;51.330;12.374;2023-03-01T14:28:28;14.00;1.00
12438;DHT22;6283;51.330;12.374;2023-03-01T14:30:57;13.90;1.00
12438;DHT22;6283;51.330;12.374;2023-03-01T14:33:30;14.10;1.00
12438;DHT22;6283;51.330;12.374;2023-03-01T14:36:01;14.30;1.00
12438;DHT22;6283;51.330;12.374;2023-03-01T14:40:59;14.40;1.00
12438;DHT22;6283;51.330;12.374;2023-03-01T14:43:26;14.40;1.00
12438;DHT22;6283;51.330;12.374;2023-03-01T14:45:53;14.40;1.00
12438;DHT22;6283;51.330;12.374;2023-03-01T14:48:19;14.30;1.00
12438;DHT22;6283;51.330;12.374;2023-03-01T14:50:46;14.30;1.00
12438;DHT22;6283;51.330;12.374;2023-03-01T14:53:23;14.60;1.00
12438;DHT22;6283;51.330;12.374;2023-03-01T14:55:53;14.50;1.00
12438;DHT22;6283;51.330;12.374;2023-03-01T14:58:24;14.60;1.00
12438;DHT22;6283;51.330;12.374;2023-03-01T15:00:53;14.70;1.00
12438;DHT22;6283;51.330;12.374;2023-03-01T15:03:30;14.60;1.00
12438;DHT22;6283;51.330;12.374;2023-03-01T15:06:00;14.70;1.00
12438;DHT22;6283;51.330;12.374;2023-03-01T15:08:26;14.80;1.00
12438;DHT22;6283;51.330;12.374;2023-03-01T15:11:01;14.60;1.00
12438;DHT22;6283;51.330;12.374;2023-03-01T15:13:32;14.60;1.00
12438;DHT22;6283;51.330;12.374;2023-03-01T15:18:54;14.40;1.00
12438;DHT22;6283;51.330;12.374;2023-03-01T15:21:34;14.40;1.00
12438;DHT22;6283;51.330;12.374;2023-03-01T15:26:45;14.40;1.00
12438;DHT22;6283;51.330;12.374;2023-03-01T15:29:21;14.40;1.00
12438;DHT22;6283;51.330;12.374;2023-03-01T15:32:05;14.40;1.00
12438;DHT22;6283;51.330;12.374;2023-03-01T15:34:36;14.60;1.00
12438;DHT22;6283;51.330;12.374;2023-03-01T15:37:32;14.40;1.00
12438;DHT22;6283;51.330;12.374;2023-03-01T15:39:54;14.40;1.00
12438;DHT22;6283;51.330;12.374;2023-03-01T15:47:57;14.20;1.00
12438;DHT22;6283;51.330;12.374;2023-03-01T15:50:32;14.10;1.00
12438;DHT22;6283;51.330;12.374;2023-03-01T15:52:59;14.10;1.00
12438;DHT22;6283;51.330;12.374;2023-03-01T15:55:28;14.10;1.00
12438;DHT22;6283;51.330;12.374;2023-03-01T15:58:08;13.90;1.00
12438;DHT22;6283;51.330;12.374;2023-03-01T16:00:35;13.90;1.00
12438;DHT22;6283;51.330;12.374;2023-03-01T16:03:01;13.80;1.00
12438;DHT22;6283;51.330;12.374;2023-03-01T16:05:27;13.60;1.00
12438;DHT22;6283;51.330;12.374;2023-03-01T16:07:54;13.70;1.00
12438;DHT22;6283;51.330;12.374;2023-03-01T16:10:21;13.40;1.00
12438;DHT22;6283;51.330;12.374;2023-03-01T16:12:46;13.20;1.00
12438;DHT22;6283;51.330;12.374;2023-03-01T16:15:31;13.30;1.00
12438;DHT22;6283;51.330;12.374;2023-03-01T16:17:57;12.90;1.00
12438;DHT22;6283;51.330;12.374;2023-03-01T16:20:24;13.10;1.00
12438;DHT22;6283;51.330;12.374;2023-03-01T16:22:50;12.70;1.00
12438;DHT22;6283;51.330;12.374;2023-03-01T16:25:18;12.60;1.00
12438;DHT22;6283;51.330;12.374;2023-03-01T16:27:45;12.60;1.00
12438;DHT22;6283;51.330;12.374;2023-03-01T16:30:14;12.30;1.00
12438;DHT22;6283;51.330;12.374;2023-03-01T16:32:40;12.00;1.00
12438;DHT22;6283;51.330;12.374;2023-03-01T16:35:08;12.00;1.00
12438;DHT22;6283;51.330;12.374;2023-03-01T16:37:35;11.50;1.00
12438;DHT22;6283;51.330;12.374;2023-03-01T16:40:03;11.20;1.00
12438;DHT22;6283;51.330;12.374;2023-03-01T16:42:33;10.60;1.00
12438;DHT22;6283;51.330;12.374;2023-03-01T16:44:59;10.50;1.00
12438;DHT22;6283;51.330;12.374;2023-03-01T16:47:25;9.90;1.00
12438;DHT22;6283;51.330;12.374;2023-03-01T16:49:52;10.00;1.00
12438;DHT22;6283;51.330;12.374;2023-03-01T16:52:18;9.60;1.00
12438;DHT22;6283;51.330;12.374;2023-03-01T16:54:43;9.40;1.00
12438;DHT22;6283;51.330;12.374;2023-03-01T16:57:09;9.10;1.00
12438;DHT22;6283;51.330;12.374;2023-03-01T16:59:35;8.90;1.00
12438;DHT22;6283;51.330;12.374;2023-03-01T17:02:03;8.80;1.00
12438;DHT22;6283;51.330;12.374;2023-03-01T17:04:29;8.80;1.00
12438;DHT22;6283;51.330;12.374;2023-03-01T17:06:55;8.60;1.00
12438;DHT22;6283;51.330;12.374;2023-03-01T17:09:20;8.70;1.00
12438;DHT22;6283;51.330;12.374;2023-03-01T17:11:50;8.50;1.00
12438;DHT22;6283;51.330;12.374;2023-03-01T17:14:16;8.30;1.00
12438;DHT22;6283;51.330;12.374;2023-03-01T17:16:43;8.40;1.00
12438;DHT22;6283;51.330;12.374;2023-03-01T17:19:09;8.30;1.00
12438;DHT22;6283;51.330;12.374;2023-03-01T17:21:34;7.80;1.00
12438;DHT22;6283;51.330;12.374;2023-03-01T17:24:00;8.20;1.00
12438;DHT22;6283;51.330;12.374;2023-03-01T17:26:26;8.00;1.00
12438;DHT22;6283;51.330;12.374;2023-03-01T17:28:56;7.70;1.00
12438;DHT22;6283;51.330;12.374;2023-03-01T17:31:23;7.70;1.00
12438;DHT22;6283;51.330;12.374;2023-03-01T17:33:49;7.70;1.00
12438;DHT22;6283;51.330;12.374;2023-03-01T17:36:16;7.50;1.00
12438;DHT22;6283;51.330;12.374;2023-03-01T17:38:42;7.80;1.00
12438;DHT22;6283;51.330;12.374;2023-03-01T17:41:08;7.50;1.00
12438;DHT22;6283;51.330;12.374;2023-03-01T17:43:36;7.50;1.00
12438;DHT22;6283;51.330;12.374;2023-03-01T17:46:02;7.40;1.00
12438;DHT22;6283;51.330;12.374;2023-03-01T17:48:28;7.40;1.00
12438;DHT22;6283;51.330;12.374;2023-03-01T17:50:54;7.40;1.00
12438;DHT22;6283;51.330;12.374;2023-03-01T17:53:20;7.30;1.00
12438;DHT22;6283;51.330;12.374;2023-03-01T17:55:46;7.10;1.00
12438;DHT22;6283;51.330;12.374;2023-03-01T17:58:18;7.20;1.00
12438;DHT22;6283;51.330;12.374;2023-03-01T18:00:48;7.00;1.00
12438;DHT22;6283;51.330;12.374;2023-03-01T18:03:14;6.90;1.00
12438;DHT22;6283;51.330;12.374;2023-03-01T18:05:39;7.00;1.00